createdAt,value
2023-02-09T00:02:13.115Z,16.08
2023-02-09T00:04:41.233Z,16.75
2023-02-09T00:07:12.183Z,12.63
2023-02-09T00:09:39.907Z,23.10
2023-02-09T00:12:26.429Z,17.77
2023-02-09T00:14:54.304Z,18.73
2023-02-09T00:17:22.621Z,18.70
2023-02-09T00:19:50.568Z,19.83
2023-02-09T00:22:18.361Z,18.37
2023-02-09T00:24:49.665Z,18.98
2023-02-09T00:27:17.671Z,15.88
2023-02-09T00:29:45.925Z,16.95
2023-02-09T00:32:17.131Z,21.25
2023-02-09T00:34:45.794Z,19.80
2023-02-09T00:37:13.618Z,18.70
2023-02-09T00:39:41.639Z,19.15
2023-02-09T00:42:11.436Z,20.05
2023-02-09T00:44:40.636Z,22.13
2023-02-09T00:47:10.413Z,20.60
2023-02-09T00:49:40.362Z,16.02
2023-02-09T00:52:10.045Z,20.50
2023-02-09T00:54:41.357Z,19.45
2023-02-09T00:57:09.902Z,19.55
2023-02-09T00:59:41.701Z,22.13
2023-02-09T01:02:10.028Z,23.48
2023-02-09T01:04:39.693Z,23.87
2023-02-09T01:07:07.930Z,20.80
2023-02-09T01:09:37.091Z,26.15
2023-02-09T01:12:08.037Z,20.12
2023-02-09T01:14:39.461Z,20.20
2023-02-09T01:17:08.960Z,20.45
2023-02-09T01:19:37.423Z,21.58
2023-02-09T01:22:05.301Z,19.35
2023-02-09T01:24:33.267Z,19.77
2023-02-09T01:27:01.407Z,18.48
2023-02-09T01:29:34.546Z,19.58
2023-02-09T01:32:02.866Z,27.08
2023-02-09T01:34:30.839Z,25.27
2023-02-09T01:37:01.719Z,25.90
2023-02-09T01:39:29.889Z,19.75
2023-02-09T01:41:57.738Z,22.95
2023-02-09T01:44:25.561Z,20.73
2023-02-09T01:46:53.683Z,24.80
2023-02-09T01:49:28.230Z,21.70
2023-02-09T01:52:11.205Z,21.62
2023-02-09T01:54:48.589Z,19.33
2023-02-09T01:57:24.911Z,26.75
2023-02-09T02:00:00.573Z,27.05
2023-02-09T02:02:33.418Z,23.55
2023-02-09T02:05:03.715Z,23.23
2023-02-09T02:07:38.800Z,20.12
2023-02-09T02:10:07.625Z,28.62
2023-02-09T02:12:37.350Z,23.45
2023-02-09T02:15:06.623Z,23.65
2023-02-09T02:17:55.881Z,19.08
2023-02-09T02:20:44.881Z,19.87
2023-02-09T02:23:39.800Z,24.10
2023-02-09T02:26:29.470Z,24.42
2023-02-09T02:29:18.527Z,23.23
2023-02-09T02:32:09.898Z,25.92
2023-02-09T02:34:51.177Z,24.73
2023-02-09T02:37:52.888Z,26.02
2023-02-09T02:40:32.834Z,24.40
2023-02-09T02:43:15.032Z,26.15
2023-02-09T02:45:55.521Z,24.95
2023-02-09T02:48:36.731Z,27.87
2023-02-09T02:51:30.633Z,29.50
2023-02-09T02:54:03.706Z,26.00
2023-02-09T02:56:35.915Z,27.10
2023-02-09T02:59:08.677Z,24.02
2023-02-09T03:01:42.535Z,24.37
2023-02-09T03:04:13.860Z,24.85
2023-02-09T03:06:41.735Z,25.67
2023-02-09T03:09:09.704Z,26.05
2023-02-09T03:11:46.935Z,26.98
2023-02-09T03:14:56.179Z,26.65
2023-02-09T03:17:51.467Z,26.95
2023-02-09T03:20:53.206Z,20.70
2023-02-09T03:23:42.868Z,28.45
2023-02-09T03:26:16.356Z,24.45
2023-02-09T03:28:48.653Z,28.10
2023-02-09T03:31:21.013Z,26.03
2023-02-09T03:36:20.879Z,21.75
2023-02-09T03:38:49.070Z,29.58
2023-02-09T03:41:16.841Z,28.50
2023-02-09T03:44:03.303Z,24.25
2023-02-09T03:46:33.885Z,29.05
2023-02-09T03:49:01.784Z,22.33
2023-02-09T03:51:29.566Z,27.17
2023-02-09T03:53:58.527Z,27.05
2023-02-09T03:56:26.431Z,23.00
2023-02-09T03:58:54.300Z,26.92
2023-02-09T04:01:22.491Z,28.15
2023-02-09T04:03:50.750Z,27.30
2023-02-09T04:06:18.586Z,23.87
2023-02-09T04:08:46.414Z,23.87
2023-02-09T04:11:14.672Z,22.80
2023-02-09T04:13:42.518Z,27.77
2023-02-09T04:16:10.452Z,25.40
2023-02-09T04:18:38.696Z,27.52
2023-02-09T04:21:06.638Z,28.95
2023-02-09T04:23:34.724Z,26.58
2023-02-09T04:26:02.903Z,22.17
2023-02-09T04:28:31.023Z,20.80
2023-02-09T04:30:59.162Z,25.20
2023-02-09T04:33:27.353Z,22.25
2023-02-09T04:35:55.106Z,23.12
2023-02-09T04:38:23.690Z,19.15
2023-02-09T04:40:53.888Z,21.45
2023-02-09T04:43:22.108Z,24.83
2023-02-09T04:45:50.004Z,28.38
2023-02-09T04:48:21.671Z,28.98
2023-02-09T04:50:50.075Z,27.37
2023-02-09T04:53:19.247Z,22.02
2023-02-09T04:55:48.323Z,26.48
2023-02-09T04:58:37.106Z,32.00
2023-02-09T05:01:06.533Z,23.02
2023-02-09T05:03:34.818Z,23.80
2023-02-09T05:06:05.378Z,29.45
2023-02-09T05:08:33.774Z,26.33
2023-02-09T05:11:01.894Z,28.98
2023-02-09T05:13:29.890Z,27.95
2023-02-09T05:16:12.139Z,36.72
2023-02-09T05:18:40.030Z,29.77
2023-02-09T05:21:08.314Z,27.42
2023-02-09T05:23:36.357Z,27.13
2023-02-09T05:26:04.391Z,31.50
2023-02-09T05:28:32.663Z,27.65
2023-02-09T05:31:00.447Z,24.70
2023-02-09T05:33:28.456Z,26.00
2023-02-09T05:35:59.842Z,24.85
2023-02-09T05:38:27.657Z,27.52
2023-02-09T05:40:55.516Z,25.30
2023-02-09T05:43:23.740Z,26.10
2023-02-09T05:45:51.600Z,23.85
2023-02-09T05:48:19.556Z,26.17
2023-02-09T05:50:48.557Z,23.52
2023-02-09T05:53:16.765Z,31.60
2023-02-09T05:55:44.659Z,25.62
2023-02-09T05:58:12.968Z,22.87
2023-02-09T06:00:40.918Z,27.02
2023-02-09T06:03:09.065Z,20.10
2023-02-09T06:05:36.918Z,29.87
2023-02-09T06:08:05.037Z,23.10
2023-02-09T06:10:33.234Z,21.65
2023-02-09T06:13:03.839Z,22.95
2023-02-09T06:15:31.734Z,26.12
2023-02-09T06:17:59.976Z,24.12
2023-02-09T06:20:27.992Z,26.52
2023-02-09T06:22:55.824Z,22.52
2023-02-09T06:25:26.950Z,25.08
2023-02-09T06:27:54.817Z,25.58
2023-02-09T06:30:22.545Z,22.75
2023-02-09T06:32:50.868Z,28.87
2023-02-09T06:35:18.702Z,23.55
2023-02-09T06:37:46.474Z,27.70
2023-02-09T06:40:14.912Z,22.17
2023-02-09T06:42:45.514Z,24.17
2023-02-09T06:45:15.744Z,25.92
2023-02-09T06:47:47.464Z,25.45
2023-02-09T06:50:18.453Z,22.48
2023-02-09T06:52:47.171Z,25.20
2023-02-09T06:55:15.103Z,23.48
2023-02-09T06:57:43.154Z,27.90
2023-02-09T07:00:13.325Z,27.23
2023-02-09T07:02:43.269Z,26.90
2023-02-09T07:05:16.466Z,25.75
2023-02-09T07:07:45.341Z,29.67
2023-02-09T07:10:17.285Z,25.35
2023-02-09T07:12:45.280Z,25.55
2023-02-09T07:15:14.473Z,34.67
2023-02-09T07:17:42.658Z,24.00
2023-02-09T07:20:11.060Z,26.25
2023-02-09T07:22:39.322Z,23.55
2023-02-09T07:25:07.377Z,29.17
2023-02-09T07:27:38.138Z,22.13
2023-02-09T07:30:06.733Z,24.90
2023-02-09T07:32:34.576Z,28.95
2023-02-09T07:35:02.433Z,23.00
2023-02-09T07:37:31.146Z,28.08
2023-02-09T07:40:02.009Z,34.28
2023-02-09T07:42:30.762Z,28.30
2023-02-09T07:44:59.105Z,25.30
2023-02-09T07:47:29.781Z,28.10
2023-02-09T07:49:57.935Z,22.50
2023-02-09T07:52:25.817Z,26.05
2023-02-09T07:54:53.595Z,27.58
2023-02-09T07:57:21.912Z,23.80
2023-02-09T07:59:49.817Z,19.80
2023-02-09T08:02:34.303Z,22.48
2023-02-09T08:05:05.534Z,35.03
2023-02-09T08:07:33.922Z,31.37
2023-02-09T08:10:02.062Z,27.33
2023-02-09T08:12:50.622Z,19.83
2023-02-09T08:15:21.598Z,25.70
2023-02-09T08:17:54.442Z,28.02
2023-02-09T08:20:26.559Z,31.67
2023-02-09T08:22:56.523Z,23.33
2023-02-09T08:25:25.843Z,26.02
2023-02-09T08:27:53.876Z,31.85
2023-02-09T08:30:21.894Z,27.98
2023-02-09T08:32:50.159Z,23.77
2023-02-09T08:35:18.207Z,21.75
2023-02-09T08:37:46.126Z,21.70
2023-02-09T08:40:15.429Z,21.87
2023-02-09T08:42:43.172Z,21.67
2023-02-09T08:45:11.412Z,26.12
2023-02-09T08:47:39.972Z,23.27
2023-02-09T08:50:08.659Z,24.98
2023-02-09T08:52:36.750Z,26.50
2023-02-09T08:55:05.597Z,20.88
2023-02-09T08:57:43.467Z,25.58
2023-02-09T09:00:13.580Z,26.65
2023-02-09T09:02:41.586Z,13.90
2023-02-09T09:05:09.323Z,20.67
2023-02-09T09:07:37.631Z,26.35
2023-02-09T09:10:05.950Z,28.60
2023-02-09T09:12:33.817Z,33.28
2023-02-09T09:15:02.296Z,26.55
2023-02-09T09:17:36.059Z,23.87
2023-02-09T09:20:04.599Z,27.77
2023-02-09T09:22:32.551Z,23.87
2023-02-09T09:25:00.404Z,26.17
2023-02-09T09:27:28.791Z,28.23
2023-02-09T09:29:56.664Z,21.23
2023-02-09T09:32:25.346Z,26.40
2023-02-09T09:34:59.240Z,22.48
2023-02-09T09:37:27.403Z,23.38
2023-02-09T09:39:55.544Z,25.05
2023-02-09T09:42:30.477Z,19.55
2023-02-09T09:45:03.337Z,19.83
2023-02-09T09:47:38.307Z,22.73
2023-02-09T09:50:14.703Z,27.92
2023-02-09T09:52:47.881Z,16.98
2023-02-09T09:55:25.663Z,18.55
2023-02-09T09:57:55.449Z,15.75
2023-02-09T10:00:27.884Z,14.25
2023-02-09T10:02:56.235Z,15.63
2023-02-09T10:05:38.148Z,13.07
2023-02-09T10:08:15.742Z,11.52
2023-02-09T10:11:05.972Z,16.10
2023-02-09T10:13:48.921Z,16.17
2023-02-09T10:16:25.193Z,16.80
2023-02-09T10:18:56.143Z,12.90
2023-02-09T10:21:26.282Z,11.93
2023-02-09T10:24:01.543Z,17.33
2023-02-09T10:26:38.230Z,13.85
2023-02-09T10:29:13.779Z,19.62
2023-02-09T10:31:55.188Z,15.13
2023-02-09T10:34:54.561Z,13.68
2023-02-09T10:37:27.348Z,18.70
2023-02-09T10:40:18.074Z,13.73
2023-02-09T10:42:59.382Z,18.67
2023-02-09T10:45:44.380Z,19.85
2023-02-09T10:48:12.376Z,13.75
2023-02-09T10:51:00.611Z,18.35
2023-02-09T10:53:31.048Z,14.48
2023-02-09T10:56:17.827Z,14.87
2023-02-09T10:59:04.977Z,16.62
2023-02-09T11:01:42.395Z,12.02
2023-02-09T11:04:21.778Z,15.80
2023-02-09T11:07:00.284Z,13.82
2023-02-09T11:09:33.857Z,14.07
2023-02-09T11:12:02.265Z,13.98
2023-02-09T11:14:30.425Z,12.40
2023-02-09T11:17:29.564Z,8.85
2023-02-09T11:20:13.962Z,11.93
2023-02-09T11:22:44.505Z,15.30
2023-02-09T11:25:51.165Z,13.15
2023-02-09T11:28:37.217Z,15.95
2023-02-09T11:31:14.824Z,18.87
2023-02-09T11:33:54.537Z,15.25
2023-02-09T11:36:46.467Z,20.08
2023-02-09T11:39:31.304Z,16.87
2023-02-09T11:42:31.435Z,15.27
2023-02-09T11:45:21.655Z,13.13
2023-02-09T11:47:52.682Z,12.10
2023-02-09T11:50:29.215Z,14.07
2023-02-09T11:53:02.339Z,19.30
2023-02-09T11:55:33.698Z,20.25
2023-02-09T11:58:13.269Z,13.40
2023-02-09T12:01:10.012Z,15.57
2023-02-09T12:04:05.742Z,17.00
2023-02-09T12:06:40.367Z,14.40
2023-02-09T12:09:34.450Z,17.37
2023-02-09T12:12:36.139Z,17.05
2023-02-09T12:15:24.869Z,16.08
2023-02-09T12:18:19.487Z,16.40
2023-02-09T12:20:54.485Z,12.15
2023-02-09T12:23:28.070Z,14.68
2023-02-09T12:26:01.837Z,11.55
2023-02-09T12:28:32.097Z,14.23
2023-02-09T12:31:03.456Z,12.90
2023-02-09T12:33:35.683Z,17.50
2023-02-09T12:36:18.576Z,11.80
2023-02-09T12:38:56.447Z,14.82
2023-02-09T12:41:30.582Z,12.75
2023-02-09T12:44:10.275Z,15.02
2023-02-09T12:46:44.574Z,16.92
2023-02-09T12:49:12.241Z,14.85
2023-02-09T12:51:55.020Z,12.27
2023-02-09T12:57:17.556Z,12.27
2023-02-09T12:59:53.897Z,13.35
2023-02-09T13:02:50.586Z,12.13
2023-02-09T13:05:18.236Z,13.88
2023-02-09T13:08:20.424Z,12.40
2023-02-09T13:10:50.878Z,9.07
2023-02-09T13:13:39.000Z,15.77
2023-02-09T13:16:25.698Z,14.20
2023-02-09T13:19:25.410Z,12.32
2023-02-09T13:22:16.203Z,12.55
2023-02-09T13:25:09.316Z,10.00
2023-02-09T13:27:48.632Z,9.20
2023-02-09T13:30:33.689Z,11.52
2023-02-09T13:33:25.506Z,12.37
2023-02-09T13:36:38.057Z,15.77
2023-02-09T13:39:22.089Z,12.43
2023-02-09T13:41:53.932Z,12.05
2023-02-09T13:44:30.602Z,12.25
2023-02-09T13:47:07.383Z,14.27
2023-02-09T13:49:35.139Z,13.95
2023-02-09T13:52:14.132Z,11.75
2023-02-09T13:54:42.960Z,12.07
2023-02-09T13:57:31.310Z,13.50
2023-02-09T14:00:09.114Z,11.95
2023-02-09T14:02:51.393Z,13.90
2023-02-09T14:05:40.474Z,15.40
2023-02-09T14:08:11.394Z,13.70
2023-02-09T14:10:43.710Z,13.80
2023-02-09T14:13:42.278Z,17.33
2023-02-09T14:16:16.752Z,15.30
2023-02-09T14:18:51.494Z,11.60
2023-02-09T14:21:19.631Z,15.32
2023-02-09T14:23:56.397Z,18.02
2023-02-09T14:26:25.981Z,16.95
2023-02-09T14:29:05.071Z,15.18
2023-02-09T14:31:36.523Z,14.23
2023-02-09T14:34:04.451Z,16.00
2023-02-09T14:36:35.561Z,16.90
2023-02-09T14:39:17.229Z,11.60
2023-02-09T14:42:10.948Z,16.85
2023-02-09T14:45:14.775Z,12.35
2023-02-09T14:47:44.776Z,12.10
2023-02-09T14:50:18.916Z,11.43
2023-02-09T14:52:49.573Z,11.77
2023-02-09T14:55:19.496Z,8.88
2023-02-09T14:57:47.723Z,9.88
2023-02-09T15:00:28.455Z,9.95
2023-02-09T15:02:58.624Z,11.07
2023-02-09T15:05:29.325Z,9.50
2023-02-09T15:08:04.809Z,10.18
2023-02-09T15:10:36.750Z,11.10
2023-02-09T15:13:05.541Z,10.65
2023-02-09T15:15:38.553Z,11.80
2023-02-09T15:18:07.873Z,10.63
2023-02-09T15:20:35.639Z,13.85
2023-02-09T15:23:03.378Z,9.68
2023-02-09T15:25:31.610Z,10.77
2023-02-09T15:28:01.304Z,9.35
2023-02-09T15:30:35.274Z,14.65
2023-02-09T15:33:03.897Z,9.98
2023-02-09T15:35:31.650Z,9.02
2023-02-09T15:38:00.992Z,9.65
2023-02-09T15:41:01.731Z,10.23
2023-02-09T15:43:48.570Z,11.10
2023-02-09T15:46:35.612Z,16.45
2023-02-09T15:49:04.096Z,13.45
2023-02-09T15:51:35.219Z,12.27
2023-02-09T15:54:08.290Z,12.23
2023-02-09T15:56:37.671Z,13.75
2023-02-09T15:59:05.920Z,12.80
2023-02-09T16:01:37.298Z,13.73
2023-02-09T16:04:15.803Z,15.77
2023-02-09T16:06:52.739Z,11.45
2023-02-09T16:09:35.991Z,11.18
2023-02-09T16:12:05.614Z,16.35
2023-02-09T16:14:33.685Z,9.93
2023-02-09T16:17:01.774Z,13.25
2023-02-09T16:19:29.908Z,12.30
2023-02-09T16:22:04.969Z,12.37
2023-02-09T16:24:45.831Z,10.60
2023-02-09T16:27:25.632Z,12.37
2023-02-09T16:29:53.459Z,12.82
2023-02-09T16:32:23.743Z,12.02
2023-02-09T16:34:52.372Z,9.82
2023-02-09T16:37:38.440Z,11.57
2023-02-09T16:40:17.397Z,10.10
2023-02-09T16:42:47.160Z,9.23
2023-02-09T16:45:20.751Z,11.57
2023-02-09T16:47:52.396Z,12.07
2023-02-09T16:50:36.297Z,12.43
2023-02-09T16:53:16.739Z,11.65
2023-02-09T16:55:49.111Z,11.10
2023-02-09T16:58:18.711Z,12.70
2023-02-09T17:00:47.621Z,13.95
2023-02-09T17:03:20.145Z,10.23
2023-02-09T17:08:26.059Z,12.88
2023-02-09T17:10:56.589Z,13.20
2023-02-09T17:13:24.621Z,9.45
2023-02-09T17:15:55.310Z,15.68
2023-02-09T17:18:27.236Z,11.38
2023-02-09T17:21:02.512Z,14.95
2023-02-09T17:23:31.152Z,14.45
2023-02-09T17:25:59.691Z,11.10
2023-02-09T17:28:28.173Z,11.07
2023-02-09T17:30:59.341Z,11.82
2023-02-09T17:33:30.393Z,11.23
2023-02-09T17:38:47.942Z,7.32
2023-02-09T17:41:17.371Z,11.93
2023-02-09T17:43:45.996Z,5.85
2023-02-09T17:46:17.458Z,9.27
2023-02-09T17:48:46.893Z,11.98
2023-02-09T17:51:26.816Z,7.68
2023-02-09T17:53:55.770Z,8.98
2023-02-09T17:56:23.766Z,11.82
2023-02-09T17:58:51.571Z,9.50
2023-02-09T18:01:31.321Z,14.75
2023-02-09T18:04:01.735Z,10.90
2023-02-09T18:06:38.426Z,9.80
2023-02-09T18:09:08.988Z,10.77
2023-02-09T18:11:57.947Z,9.93
2023-02-09T18:14:27.436Z,13.57
2023-02-09T18:16:55.601Z,11.45
2023-02-09T18:19:24.739Z,10.23
2023-02-09T18:21:55.966Z,3.67
2023-02-09T18:24:25.084Z,8.45
2023-02-09T18:26:53.294Z,8.90
2023-02-09T18:29:29.602Z,9.45
2023-02-09T18:31:59.536Z,5.95
2023-02-09T18:34:27.500Z,5.93
2023-02-09T18:36:56.578Z,12.95
2023-02-09T18:39:24.906Z,6.70
2023-02-09T18:41:54.713Z,8.98
2023-02-09T18:44:29.230Z,11.77
2023-02-09T18:47:00.743Z,9.55
2023-02-09T18:49:29.035Z,9.70
2023-02-09T18:51:59.057Z,4.30
2023-02-09T18:54:29.122Z,9.70
2023-02-09T18:56:57.583Z,10.48
2023-02-09T18:59:29.811Z,9.75
2023-02-09T19:01:58.989Z,14.30
2023-02-09T19:04:27.066Z,11.95
2023-02-09T19:06:54.924Z,8.15
2023-02-09T19:09:23.437Z,9.90
2023-02-09T19:11:51.348Z,10.07
2023-02-09T19:14:37.573Z,13.95
2023-02-09T19:17:15.100Z,8.07
2023-02-09T19:19:43.775Z,7.55
2023-02-09T19:22:19.751Z,12.05
2023-02-09T19:24:48.708Z,11.15
2023-02-09T19:27:19.063Z,4.70
2023-02-09T19:29:46.892Z,9.95
2023-02-09T19:32:15.383Z,7.87
2023-02-09T19:34:45.653Z,8.40
2023-02-09T19:37:14.529Z,8.63
2023-02-09T19:39:42.443Z,8.95
2023-02-09T19:42:10.672Z,11.57
2023-02-09T19:44:38.585Z,5.30
2023-02-09T19:47:06.285Z,8.55
2023-02-09T19:49:34.490Z,7.07
2023-02-09T19:52:02.310Z,9.65
2023-02-09T19:54:30.101Z,12.50
2023-02-09T19:56:58.441Z,3.50
2023-02-09T19:59:26.236Z,12.68
2023-02-09T20:01:54.225Z,6.65
2023-02-09T20:04:22.586Z,5.55
2023-02-09T20:06:50.282Z,8.40
2023-02-09T20:09:18.152Z,10.80
2023-02-09T20:11:46.444Z,6.45
2023-02-09T20:14:14.154Z,9.93
2023-02-09T20:16:42.013Z,7.75
2023-02-09T20:19:10.345Z,10.73
2023-02-09T20:21:38.267Z,10.50
2023-02-09T20:24:10.493Z,12.15
2023-02-09T20:26:38.598Z,8.23
2023-02-09T20:29:06.634Z,11.88
2023-02-09T20:31:37.215Z,10.63
2023-02-09T20:34:07.528Z,6.45
2023-02-09T20:36:36.958Z,6.65
2023-02-09T20:39:06.693Z,12.77
2023-02-09T20:41:34.577Z,8.18
2023-02-09T20:44:20.572Z,4.32
2023-02-09T20:46:57.533Z,11.27
2023-02-09T20:49:31.414Z,6.65
2023-02-09T20:51:59.682Z,5.45
2023-02-09T20:54:27.892Z,8.25
2023-02-09T20:56:55.598Z,9.07
2023-02-09T20:59:24.960Z,8.63
2023-02-09T21:01:53.055Z,7.47
2023-02-09T21:04:26.886Z,7.75
2023-02-09T21:06:55.268Z,5.32
2023-02-09T21:09:27.338Z,6.97
2023-02-09T21:11:56.370Z,10.05
2023-02-09T21:14:40.866Z,7.82
2023-02-09T21:17:09.984Z,12.93
2023-02-09T21:19:37.907Z,13.45
2023-02-09T21:22:05.969Z,8.15
2023-02-09T21:24:34.170Z,9.60
2023-02-09T21:27:01.853Z,8.05
2023-02-09T21:29:29.859Z,8.45
2023-02-09T21:32:02.318Z,9.77
2023-02-09T21:34:30.357Z,8.80
2023-02-09T21:36:58.578Z,7.75
2023-02-09T21:39:26.551Z,9.40
2023-02-09T21:42:12.710Z,7.80
2023-02-09T21:44:40.802Z,13.62
2023-02-09T21:47:08.869Z,9.23
2023-02-09T21:49:37.094Z,9.45
2023-02-09T21:52:07.659Z,6.12
2023-02-09T21:54:35.479Z,9.60
2023-02-09T21:57:04.166Z,8.35
2023-02-09T21:59:32.562Z,10.73
2023-02-09T22:02:00.448Z,6.75
2023-02-09T22:04:28.723Z,5.72
2023-02-09T22:06:56.509Z,10.88
2023-02-09T22:09:25.393Z,2.92
2023-02-09T22:11:53.655Z,12.90
2023-02-09T22:14:21.344Z,6.50
2023-02-09T22:16:49.268Z,5.82
2023-02-09T22:19:17.449Z,11.68
2023-02-09T22:21:48.464Z,4.10
2023-02-09T22:24:17.331Z,17.65
2023-02-09T22:26:48.541Z,9.93
2023-02-09T22:29:17.181Z,4.97
2023-02-09T22:31:45.693Z,11.90
2023-02-09T22:34:13.754Z,4.75
2023-02-09T22:36:41.638Z,9.80
2023-02-09T22:39:13.157Z,7.03
2023-02-09T22:41:43.011Z,7.87
2023-02-09T22:44:14.370Z,12.05
2023-02-09T22:46:43.385Z,8.63
2023-02-09T22:49:17.817Z,8.68
2023-02-09T22:51:47.759Z,16.73
2023-02-09T22:54:17.982Z,6.10
2023-02-09T22:56:46.293Z,12.00
2023-02-09T22:59:15.197Z,7.87
2023-02-09T23:01:46.344Z,5.45
2023-02-09T23:04:14.252Z,15.10
2023-02-09T23:06:42.177Z,14.23
2023-02-09T23:09:13.081Z,17.35
2023-02-09T23:11:41.574Z,12.75
2023-02-09T23:14:11.229Z,11.30
2023-02-09T23:16:41.153Z,13.13
2023-02-09T23:19:13.352Z,13.85
2023-02-09T23:21:44.538Z,10.65
2023-02-09T23:24:18.015Z,9.07
2023-02-09T23:26:46.192Z,15.98
2023-02-09T23:29:16.868Z,13.20
2023-02-09T23:31:46.315Z,14.68
2023-02-09T23:34:20.251Z,10.23
2023-02-09T23:36:51.266Z,11.82
2023-02-09T23:39:23.145Z,10.30
2023-02-09T23:41:50.960Z,8.50
2023-02-09T23:44:19.828Z,9.90
2023-02-09T23:46:47.858Z,7.57
2023-02-09T23:49:15.633Z,2.33
2023-02-09T23:51:45.912Z,10.43
2023-02-09T23:54:13.987Z,7.93
2023-02-09T23:56:41.765Z,7.03
2023-02-09T23:59:14.253Z,5.87
